sensor_id;sensor_type;location;lat;lon;timestamp;P1;durP1;ratioP1;P2;durP2;ratioP2
52294;SDS011;38243;53.212;6.574;2023-12-20T00:00:26;6.05;;;1.38;;
52294;SDS011;38243;53.212;6.574;2023-12-20T00:02:51;4.60;;;1.13;;
52294;SDS011;38243;53.212;6.574;2023-12-20T00:05:17;4.22;;;1.08;;
52294;SDS011;38243;53.212;6.574;2023-12-20T00:07:43;5.93;;;1.00;;
52294;SDS011;38243;53.212;6.574;2023-12-20T00:10:08;4.40;;;1.00;;
52294;SDS011;38243;53.212;6.574;2023-12-20T00:12:34;4.60;;;1.00;;
52294;SDS011;38243;53.212;6.574;2023-12-20T00:15:00;3.90;;;1.00;;
52294;SDS011;38243;53.212;6.574;2023-12-20T00:17:26;5.07;;;1.00;;
52294;SDS011;38243;53.212;6.574;2023-12-20T00:19:51;4.97;;;0.90;;
52294;SDS011;38243;53.212;6.574;2023-12-20T00:22:17;4.18;;;1.20;;
52294;SDS011;38243;53.212;6.574;2023-12-20T00:24:43;3.37;;;1.10;;
52294;SDS011;38243;53.212;6.574;2023-12-20T00:27:08;4.47;;;1.02;;
52294;SDS011;38243;53.212;6.574;2023-12-20T00:29:34;3.90;;;1.00;;
52294;SDS011;38243;53.212;6.574;2023-12-20T00:32:00;4.72;;;1.23;;
52294;SDS011;38243;53.212;6.574;2023-12-20T00:34:26;5.77;;;1.20;;
52294;SDS011;38243;53.212;6.574;2023-12-20T00:36:51;3.88;;;1.10;;
52294;SDS011;38243;53.212;6.574;2023-12-20T00:39:17;4.73;;;1.27;;
52294;SDS011;38243;53.212;6.574;2023-12-20T00:41:43;3.03;;;1.02;;
52294;SDS011;38243;53.212;6.574;2023-12-20T00:44:08;5.43;;;1.23;;
52294;SDS011;38243;53.212;6.574;2023-12-20T00:46:34;4.53;;;1.38;;
52294;SDS011;38243;53.212;6.574;2023-12-20T00:49:00;4.20;;;1.20;;
52294;SDS011;38243;53.212;6.574;2023-12-20T00:51:25;2.35;;;0.70;;
52294;SDS011;38243;53.212;6.574;2023-12-20T00:53:51;4.60;;;1.02;;
52294;SDS011;38243;53.212;6.574;2023-12-20T00:56:20;4.20;;;1.35;;
52294;SDS011;38243;53.212;6.574;2023-12-20T00:58:46;4.40;;;1.38;;
52294;SDS011;38243;53.212;6.574;2023-12-20T01:01:11;4.07;;;1.03;;
52294;SDS011;38243;53.212;6.574;2023-12-20T01:03:38;3.07;;;1.00;;
52294;SDS011;38243;53.212;6.574;2023-12-20T01:06:04;4.10;;;1.10;;
52294;SDS011;38243;53.212;6.574;2023-12-20T01:08:30;3.03;;;1.20;;
52294;SDS011;38243;53.212;6.574;2023-12-20T01:10:56;4.30;;;1.38;;
52294;SDS011;38243;53.212;6.574;2023-12-20T01:13:21;4.85;;;1.10;;
52294;SDS011;38243;53.212;6.574;2023-12-20T01:15:47;5.93;;;1.50;;
52294;SDS011;38243;53.212;6.574;2023-12-20T01:18:13;3.78;;;1.00;;
52294;SDS011;38243;53.212;6.574;2023-12-20T01:20:39;4.15;;;0.98;;
52294;SDS011;38243;53.212;6.574;2023-12-20T01:23:05;4.28;;;1.10;;
52294;SDS011;38243;53.212;6.574;2023-12-20T01:25:31;5.03;;;1.10;;
52294;SDS011;38243;53.212;6.574;2023-12-20T01:27:57;4.75;;;1.10;;
52294;SDS011;38243;53.212;6.574;2023-12-20T01:30:22;4.40;;;1.20;;
52294;SDS011;38243;53.212;6.574;2023-12-20T01:32:49;4.68;;;1.20;;
52294;SDS011;38243;53.212;6.574;2023-12-20T01:35:15;4.67;;;1.50;;
52294;SDS011;38243;53.212;6.574;2023-12-20T01:37:40;3.88;;;1.13;;
52294;SDS011;38243;53.212;6.574;2023-12-20T01:40:06;4.20;;;1.13;;
52294;SDS011;38243;53.212;6.574;2023-12-20T01:42:33;6.10;;;1.33;;
52294;SDS011;38243;53.212;6.574;2023-12-20T01:44:58;5.63;;;1.40;;
52294;SDS011;38243;53.212;6.574;2023-12-20T01:47:24;5.40;;;1.10;;
52294;SDS011;38243;53.212;6.574;2023-12-20T01:49:52;5.10;;;1.50;;
52294;SDS011;38243;53.212;6.574;2023-12-20T01:52:18;3.20;;;1.10;;
52294;SDS011;38243;53.212;6.574;2023-12-20T01:54:45;4.93;;;1.50;;
52294;SDS011;38243;53.212;6.574;2023-12-20T01:57:12;4.25;;;1.20;;
52294;SDS011;38243;53.212;6.574;2023-12-20T01:59:39;4.00;;;1.10;;
52294;SDS011;38243;53.212;6.574;2023-12-20T02:02:05;5.63;;;1.42;;
52294;SDS011;38243;53.212;6.574;2023-12-20T02:04:32;4.43;;;1.40;;
52294;SDS011;38243;53.212;6.574;2023-12-20T02:06:58;5.22;;;1.40;;
52294;SDS011;38243;53.212;6.574;2023-12-20T02:09:24;4.70;;;1.13;;
52294;SDS011;38243;53.212;6.574;2023-12-20T02:11:50;5.20;;;1.33;;
52294;SDS011;38243;53.212;6.574;2023-12-20T02:14:16;4.60;;;1.27;;
52294;SDS011;38243;53.212;6.574;2023-12-20T02:16:41;4.93;;;1.30;;
52294;SDS011;38243;53.212;6.574;2023-12-20T02:19:10;4.15;;;1.23;;
52294;SDS011;38243;53.212;6.574;2023-12-20T02:21:39;3.70;;;1.20;;
52294;SDS011;38243;53.212;6.574;2023-12-20T02:24:05;3.70;;;1.08;;
52294;SDS011;38243;53.212;6.574;2023-12-20T02:26:34;4.53;;;1.30;;
52294;SDS011;38243;53.212;6.574;2023-12-20T02:29:00;4.20;;;1.30;;
52294;SDS011;38243;53.212;6.574;2023-12-20T02:31:27;5.20;;;1.17;;
52294;SDS011;38243;53.212;6.574;2023-12-20T02:33:53;4.17;;;1.07;;
52294;SDS011;38243;53.212;6.574;2023-12-20T02:36:18;3.38;;;1.10;;
52294;SDS011;38243;53.212;6.574;2023-12-20T02:38:44;5.90;;;1.30;;
52294;SDS011;38243;53.212;6.574;2023-12-20T02:41:10;3.85;;;1.17;;
52294;SDS011;38243;53.212;6.574;2023-12-20T02:43:36;6.03;;;1.70;;
52294;SDS011;38243;53.212;6.574;2023-12-20T02:46:02;6.05;;;1.40;;
52294;SDS011;38243;53.212;6.574;2023-12-20T02:48:28;5.30;;;1.30;;
52294;SDS011;38243;53.212;6.574;2023-12-20T02:50:54;4.43;;;1.30;;
52294;SDS011;38243;53.212;6.574;2023-12-20T02:53:20;4.65;;;1.40;;
52294;SDS011;38243;53.212;6.574;2023-12-20T02:55:45;4.65;;;1.50;;
52294;SDS011;38243;53.212;6.574;2023-12-20T02:58:11;6.97;;;1.60;;
52294;SDS011;38243;53.212;6.574;2023-12-20T03:00:37;5.72;;;1.75;;
52294;SDS011;38243;53.212;6.574;2023-12-20T03:03:03;6.75;;;1.67;;
52294;SDS011;38243;53.212;6.574;2023-12-20T03:05:29;6.10;;;1.70;;
52294;SDS011;38243;53.212;6.574;2023-12-20T03:07:54;5.90;;;1.70;;
52294;SDS011;38243;53.212;6.574;2023-12-20T03:10:20;5.67;;;1.50;;
52294;SDS011;38243;53.212;6.574;2023-12-20T03:12:46;6.18;;;1.77;;
52294;SDS011;38243;53.212;6.574;2023-12-20T03:15:11;5.77;;;1.70;;
52294;SDS011;38243;53.212;6.574;2023-12-20T03:17:37;7.20;;;1.77;;
52294;SDS011;38243;53.212;6.574;2023-12-20T03:20:03;6.03;;;1.95;;
52294;SDS011;38243;53.212;6.574;2023-12-20T03:22:29;7.90;;;1.77;;
52294;SDS011;38243;53.212;6.574;2023-12-20T03:24:55;6.05;;;1.77;;
52294;SDS011;38243;53.212;6.574;2023-12-20T03:27:20;5.93;;;1.60;;
52294;SDS011;38243;53.212;6.574;2023-12-20T03:29:46;5.13;;;1.58;;
52294;SDS011;38243;53.212;6.574;2023-12-20T03:32:15;5.28;;;1.63;;
52294;SDS011;38243;53.212;6.574;2023-12-20T03:34:41;9.33;;;1.93;;
52294;SDS011;38243;53.212;6.574;2023-12-20T03:37:06;6.20;;;1.42;;
52294;SDS011;38243;53.212;6.574;2023-12-20T03:39:32;7.23;;;1.90;;
52294;SDS011;38243;53.212;6.574;2023-12-20T03:41:58;6.82;;;1.90;;
52294;SDS011;38243;53.212;6.574;2023-12-20T03:44:23;6.07;;;1.67;;
52294;SDS011;38243;53.212;6.574;2023-12-20T03:46:49;6.30;;;1.77;;
52294;SDS011;38243;53.212;6.574;2023-12-20T03:49:15;7.90;;;2.00;;
52294;SDS011;38243;53.212;6.574;2023-12-20T03:51:40;9.13;;;1.85;;
52294;SDS011;38243;53.212;6.574;2023-12-20T03:54:07;7.28;;;1.77;;
52294;SDS011;38243;53.212;6.574;2023-12-20T03:56:33;7.20;;;1.97;;
52294;SDS011;38243;53.212;6.574;2023-12-20T03:59:01;7.30;;;2.03;;
52294;SDS011;38243;53.212;6.574;2023-12-20T04:01:27;8.10;;;2.40;;
52294;SDS011;38243;53.212;6.574;2023-12-20T04:03:53;6.45;;;1.70;;
52294;SDS011;38243;53.212;6.574;2023-12-20T04:06:19;7.13;;;1.90;;
52294;SDS011;38243;53.212;6.574;2023-12-20T04:08:45;7.37;;;1.80;;
52294;SDS011;38243;53.212;6.574;2023-12-20T04:11:10;7.82;;;1.80;;
52294;SDS011;38243;53.212;6.574;2023-12-20T04:13:36;5.77;;;1.60;;
52294;SDS011;38243;53.212;6.574;2023-12-20T04:16:02;7.43;;;2.10;;
52294;SDS011;38243;53.212;6.574;2023-12-20T04:18:28;7.97;;;1.95;;
52294;SDS011;38243;53.212;6.574;2023-12-20T04:20:54;7.40;;;2.07;;
52294;SDS011;38243;53.212;6.574;2023-12-20T04:23:19;7.05;;;2.03;;
52294;SDS011;38243;53.212;6.574;2023-12-20T04:25:45;7.00;;;1.95;;
52294;SDS011;38243;53.212;6.574;2023-12-20T04:28:12;7.65;;;2.20;;
52294;SDS011;38243;53.212;6.574;2023-12-20T04:30:37;7.50;;;2.00;;
52294;SDS011;38243;53.212;6.574;2023-12-20T04:33:03;8.88;;;2.00;;
52294;SDS011;38243;53.212;6.574;2023-12-20T04:35:29;7.28;;;2.08;;
52294;SDS011;38243;53.212;6.574;2023-12-20T04:37:54;8.30;;;2.10;;
52294;SDS011;38243;53.212;6.574;2023-12-20T04:40:20;7.78;;;1.88;;
52294;SDS011;38243;53.212;6.574;2023-12-20T04:42:46;6.97;;;2.10;;
52294;SDS011;38243;53.212;6.574;2023-12-20T04:45:12;8.23;;;2.40;;
52294;SDS011;38243;53.212;6.574;2023-12-20T04:47:38;7.60;;;2.10;;
52294;SDS011;38243;53.212;6.574;2023-12-20T04:50:04;7.05;;;2.10;;
52294;SDS011;38243;53.212;6.574;2023-12-20T04:52:31;5.70;;;1.83;;
52294;SDS011;38243;53.212;6.574;2023-12-20T04:54:56;7.80;;;1.92;;
52294;SDS011;38243;53.212;6.574;2023-12-20T04:57:22;7.93;;;2.13;;
52294;SDS011;38243;53.212;6.574;2023-12-20T04:59:48;7.07;;;2.23;;
52294;SDS011;38243;53.212;6.574;2023-12-20T05:02:14;8.32;;;2.20;;
52294;SDS011;38243;53.212;6.574;2023-12-20T05:04:39;7.90;;;2.20;;
52294;SDS011;38243;53.212;6.574;2023-12-20T05:07:06;7.13;;;2.03;;
52294;SDS011;38243;53.212;6.574;2023-12-20T05:09:32;9.05;;;2.30;;
52294;SDS011;38243;53.212;6.574;2023-12-20T05:11:58;8.20;;;2.55;;
52294;SDS011;38243;53.212;6.574;2023-12-20T05:14:24;7.93;;;2.30;;
52294;SDS011;38243;53.212;6.574;2023-12-20T05:16:50;8.18;;;2.10;;
52294;SDS011;38243;53.212;6.574;2023-12-20T05:19:16;7.80;;;1.80;;
52294;SDS011;38243;53.212;6.574;2023-12-20T05:21:42;7.97;;;2.30;;
52294;SDS011;38243;53.212;6.574;2023-12-20T05:24:07;9.07;;;2.37;;
52294;SDS011;38243;53.212;6.574;2023-12-20T05:26:33;7.78;;;2.28;;
52294;SDS011;38243;53.212;6.574;2023-12-20T05:28:59;11.30;;;2.50;;
52294;SDS011;38243;53.212;6.574;2023-12-20T05:31:24;10.40;;;2.20;;
52294;SDS011;38243;53.212;6.574;2023-12-20T05:33:50;7.77;;;2.10;;
52294;SDS011;38243;53.212;6.574;2023-12-20T05:36:16;8.00;;;2.58;;
52294;SDS011;38243;53.212;6.574;2023-12-20T05:38:46;8.40;;;2.50;;
52294;SDS011;38243;53.212;6.574;2023-12-20T05:41:12;10.77;;;2.73;;
52294;SDS011;38243;53.212;6.574;2023-12-20T05:43:38;7.90;;;2.00;;
52294;SDS011;38243;53.212;6.574;2023-12-20T05:46:07;10.10;;;2.20;;
52294;SDS011;38243;53.212;6.574;2023-12-20T05:48:36;10.30;;;2.73;;
52294;SDS011;38243;53.212;6.574;2023-12-20T05:51:02;10.05;;;2.47;;
52294;SDS011;38243;53.212;6.574;2023-12-20T05:53:28;9.85;;;2.63;;
52294;SDS011;38243;53.212;6.574;2023-12-20T05:55:53;9.63;;;2.77;;
52294;SDS011;38243;53.212;6.574;2023-12-20T05:58:19;10.05;;;2.35;;
52294;SDS011;38243;53.212;6.574;2023-12-20T06:00:53;10.68;;;2.80;;
52294;SDS011;38243;53.212;6.574;2023-12-20T06:03:19;9.70;;;2.35;;
52294;SDS011;38243;53.212;6.574;2023-12-20T06:05:44;10.93;;;2.42;;
52294;SDS011;38243;53.212;6.574;2023-12-20T06:08:10;9.03;;;2.43;;
52294;SDS011;38243;53.212;6.574;2023-12-20T06:10:36;11.18;;;3.00;;
52294;SDS011;38243;53.212;6.574;2023-12-20T06:13:02;13.52;;;2.90;;
52294;SDS011;38243;53.212;6.574;2023-12-20T06:15:29;15.43;;;3.10;;
52294;SDS011;38243;53.212;6.574;2023-12-20T06:17:55;11.70;;;2.60;;
52294;SDS011;38243;53.212;6.574;2023-12-20T06:20:20;14.82;;;2.92;;
52294;SDS011;38243;53.212;6.574;2023-12-20T06:22:46;17.23;;;3.07;;
52294;SDS011;38243;53.212;6.574;2023-12-20T06:25:12;13.95;;;3.05;;
52294;SDS011;38243;53.212;6.574;2023-12-20T06:27:38;17.15;;;3.65;;
52294;SDS011;38243;53.212;6.574;2023-12-20T06:30:04;11.83;;;3.10;;
52294;SDS011;38243;53.212;6.574;2023-12-20T06:32:30;15.33;;;3.07;;
52294;SDS011;38243;53.212;6.574;2023-12-20T06:34:55;11.60;;;2.83;;
52294;SDS011;38243;53.212;6.574;2023-12-20T06:37:21;13.93;;;3.03;;
52294;SDS011;38243;53.212;6.574;2023-12-20T06:39:47;11.20;;;3.40;;
52294;SDS011;38243;53.212;6.574;2023-12-20T06:42:13;13.07;;;3.38;;
52294;SDS011;38243;53.212;6.574;2023-12-20T06:44:39;11.27;;;3.10;;
52294;SDS011;38243;53.212;6.574;2023-12-20T06:47:05;13.77;;;3.13;;
52294;SDS011;38243;53.212;6.574;2023-12-20T06:49:31;11.05;;;3.25;;
52294;SDS011;38243;53.212;6.574;2023-12-20T06:51:57;13.50;;;3.22;;
52294;SDS011;38243;53.212;6.574;2023-12-20T06:54:23;13.00;;;3.33;;
52294;SDS011;38243;53.212;6.574;2023-12-20T06:56:49;10.52;;;2.75;;
52294;SDS011;38243;53.212;6.574;2023-12-20T06:59:15;11.10;;;3.00;;
52294;SDS011;38243;53.212;6.574;2023-12-20T07:01:41;12.18;;;2.80;;
52294;SDS011;38243;53.212;6.574;2023-12-20T07:04:07;10.73;;;2.83;;
52294;SDS011;38243;53.212;6.574;2023-12-20T07:06:33;11.70;;;2.92;;
52294;SDS011;38243;53.212;6.574;2023-12-20T07:08:59;11.20;;;3.03;;
52294;SDS011;38243;53.212;6.574;2023-12-20T07:11:24;11.00;;;2.67;;
52294;SDS011;38243;53.212;6.574;2023-12-20T07:13:51;12.93;;;3.00;;
52294;SDS011;38243;53.212;6.574;2023-12-20T07:16:17;11.47;;;2.90;;
52294;SDS011;38243;53.212;6.574;2023-12-20T07:18:42;10.45;;;2.50;;
52294;SDS011;38243;53.212;6.574;2023-12-20T07:21:08;10.70;;;3.00;;
52294;SDS011;38243;53.212;6.574;2023-12-20T07:23:34;12.43;;;3.13;;
52294;SDS011;38243;53.212;6.574;2023-12-20T07:25:59;11.48;;;3.08;;
52294;SDS011;38243;53.212;6.574;2023-12-20T07:28:25;13.73;;;2.97;;
52294;SDS011;38243;53.212;6.574;2023-12-20T07:30:51;11.88;;;3.08;;
52294;SDS011;38243;53.212;6.574;2023-12-20T07:33:17;11.63;;;3.67;;
52294;SDS011;38243;53.212;6.574;2023-12-20T07:35:42;10.48;;;2.80;;
52294;SDS011;38243;53.212;6.574;2023-12-20T07:38:10;11.80;;;2.80;;
52294;SDS011;38243;53.212;6.574;2023-12-20T07:40:37;8.88;;;2.33;;
52294;SDS011;38243;53.212;6.574;2023-12-20T07:43:04;9.15;;;2.90;;
52294;SDS011;38243;53.212;6.574;2023-12-20T07:45:29;10.20;;;2.77;;
52294;SDS011;38243;53.212;6.574;2023-12-20T07:47:55;10.93;;;2.65;;
52294;SDS011;38243;53.212;6.574;2023-12-20T07:50:21;10.20;;;2.80;;
52294;SDS011;38243;53.212;6.574;2023-12-20T07:52:46;15.30;;;3.22;;
52294;SDS011;38243;53.212;6.574;2023-12-20T07:55:12;22.40;;;4.40;;
52294;SDS011;38243;53.212;6.574;2023-12-20T07:57:38;16.83;;;4.15;;
52294;SDS011;38243;53.212;6.574;2023-12-20T08:00:04;24.48;;;4.00;;
52294;SDS011;38243;53.212;6.574;2023-12-20T08:02:30;24.83;;;4.60;;
52294;SDS011;38243;53.212;6.574;2023-12-20T08:04:56;19.77;;;3.90;;
52294;SDS011;38243;53.212;6.574;2023-12-20T08:07:21;17.17;;;3.93;;
52294;SDS011;38243;53.212;6.574;2023-12-20T08:09:47;20.10;;;3.80;;
52294;SDS011;38243;53.212;6.574;2023-12-20T08:12:13;18.27;;;3.83;;
52294;SDS011;38243;53.212;6.574;2023-12-20T08:14:39;17.40;;;3.85;;
52294;SDS011;38243;53.212;6.574;2023-12-20T08:17:05;16.45;;;3.90;;
52294;SDS011;38243;53.212;6.574;2023-12-20T08:19:30;14.63;;;3.70;;
52294;SDS011;38243;53.212;6.574;2023-12-20T08:21:56;16.08;;;3.58;;
52294;SDS011;38243;53.212;6.574;2023-12-20T08:24:22;14.23;;;3.40;;
52294;SDS011;38243;53.212;6.574;2023-12-20T08:26:47;14.93;;;3.78;;
52294;SDS011;38243;53.212;6.574;2023-12-20T08:29:13;16.93;;;3.43;;
52294;SDS011;38243;53.212;6.574;2023-12-20T08:31:39;14.60;;;3.47;;
52294;SDS011;38243;53.212;6.574;2023-12-20T08:34:05;15.85;;;3.72;;
52294;SDS011;38243;53.212;6.574;2023-12-20T08:36:31;13.97;;;3.47;;
52294;SDS011;38243;53.212;6.574;2023-12-20T08:38:56;13.50;;;3.40;;
52294;SDS011;38243;53.212;6.574;2023-12-20T08:41:22;14.50;;;4.00;;
52294;SDS011;38243;53.212;6.574;2023-12-20T08:43:48;12.55;;;3.10;;
52294;SDS011;38243;53.212;6.574;2023-12-20T08:46:14;12.80;;;2.97;;
52294;SDS011;38243;53.212;6.574;2023-12-20T08:48:40;10.85;;;2.85;;
52294;SDS011;38243;53.212;6.574;2023-12-20T08:51:06;8.77;;;2.50;;
52294;SDS011;38243;53.212;6.574;2023-12-20T08:53:33;10.05;;;2.72;;
52294;SDS011;38243;53.212;6.574;2023-12-20T08:55:59;8.80;;;2.80;;
52294;SDS011;38243;53.212;6.574;2023-12-20T08:58:27;10.17;;;2.60;;
52294;SDS011;38243;53.212;6.574;2023-12-20T09:00:53;7.18;;;1.90;;
52294;SDS011;38243;53.212;6.574;2023-12-20T09:03:18;7.40;;;2.00;;
52294;SDS011;38243;53.212;6.574;2023-12-20T09:05:44;8.27;;;1.95;;
52294;SDS011;38243;53.212;6.574;2023-12-20T09:08:10;4.43;;;1.40;;
52294;SDS011;38243;53.212;6.574;2023-12-20T09:10:37;7.03;;;1.80;;
52294;SDS011;38243;53.212;6.574;2023-12-20T09:13:02;4.68;;;1.38;;
52294;SDS011;38243;53.212;6.574;2023-12-20T09:15:29;6.63;;;1.60;;
52294;SDS011;38243;53.212;6.574;2023-12-20T09:17:55;7.55;;;1.67;;
52294;SDS011;38243;53.212;6.574;2023-12-20T09:20:21;6.43;;;1.57;;
52294;SDS011;38243;53.212;6.574;2023-12-20T09:22:48;5.53;;;1.43;;
52294;SDS011;38243;53.212;6.574;2023-12-20T09:25:14;5.53;;;1.70;;
52294;SDS011;38243;53.212;6.574;2023-12-20T09:27:42;5.25;;;1.23;;
52294;SDS011;38243;53.212;6.574;2023-12-20T09:30:07;6.83;;;1.40;;
52294;SDS011;38243;53.212;6.574;2023-12-20T09:32:33;6.05;;;1.33;;
52294;SDS011;38243;53.212;6.574;2023-12-20T09:34:59;4.95;;;1.42;;
52294;SDS011;38243;53.212;6.574;2023-12-20T09:37:26;6.82;;;1.27;;
52294;SDS011;38243;53.212;6.574;2023-12-20T09:39:52;4.37;;;1.13;;
52294;SDS011;38243;53.212;6.574;2023-12-20T09:42:21;3.60;;;1.10;;
52294;SDS011;38243;53.212;6.574;2023-12-20T09:45:21;4.30;;;1.05;;
52294;SDS011;38243;53.212;6.574;2023-12-20T09:47:48;5.90;;;1.20;;
52294;SDS011;38243;53.212;6.574;2023-12-20T09:50:15;9.23;;;1.35;;
52294;SDS011;38243;53.212;6.574;2023-12-20T09:52:44;7.93;;;1.40;;
52294;SDS011;38243;53.212;6.574;2023-12-20T09:55:15;12.60;;;1.65;;
52294;SDS011;38243;53.212;6.574;2023-12-20T09:57:45;12.50;;;2.15;;
52294;SDS011;38243;53.212;6.574;2023-12-20T10:00:12;10.52;;;1.58;;
52294;SDS011;38243;53.212;6.574;2023-12-20T10:02:40;7.57;;;1.50;;
52294;SDS011;38243;53.212;6.574;2023-12-20T10:05:13;11.25;;;1.65;;
52294;SDS011;38243;53.212;6.574;2023-12-20T10:07:44;8.00;;;1.48;;
52294;SDS011;38243;53.212;6.574;2023-12-20T10:10:11;9.43;;;1.77;;
52294;SDS011;38243;53.212;6.574;2023-12-20T10:12:38;6.35;;;1.30;;
52294;SDS011;38243;53.212;6.574;2023-12-20T10:15:04;8.60;;;1.33;;
52294;SDS011;38243;53.212;6.574;2023-12-20T10:17:31;9.93;;;1.52;;
52294;SDS011;38243;53.212;6.574;2023-12-20T10:19:57;7.07;;;1.52;;
52294;SDS011;38243;53.212;6.574;2023-12-20T10:22:23;9.30;;;1.70;;
52294;SDS011;38243;53.212;6.574;2023-12-20T10:24:49;5.80;;;1.20;;
52294;SDS011;38243;53.212;6.574;2023-12-20T10:27:15;8.35;;;1.30;;
52294;SDS011;38243;53.212;6.574;2023-12-20T10:29:44;10.93;;;1.77;;
52294;SDS011;38243;53.212;6.574;2023-12-20T10:32:26;7.10;;;1.73;;
52294;SDS011;38243;53.212;6.574;2023-12-20T10:34:53;7.72;;;1.90;;
52294;SDS011;38243;53.212;6.574;2023-12-20T10:37:20;12.57;;;2.13;;
52294;SDS011;38243;53.212;6.574;2023-12-20T10:39:53;9.57;;;1.73;;
52294;SDS011;38243;53.212;6.574;2023-12-20T10:42:22;9.10;;;1.80;;
52294;SDS011;38243;53.212;6.574;2023-12-20T10:44:51;7.32;;;1.80;;
52294;SDS011;38243;53.212;6.574;2023-12-20T10:47:19;6.70;;;1.80;;
52294;SDS011;38243;53.212;6.574;2023-12-20T10:49:45;9.17;;;1.90;;
52294;SDS011;38243;53.212;6.574;2023-12-20T10:52:12;7.70;;;1.75;;
52294;SDS011;38243;53.212;6.574;2023-12-20T10:54:41;6.82;;;1.60;;
52294;SDS011;38243;53.212;6.574;2023-12-20T10:57:07;9.30;;;1.88;;
52294;SDS011;38243;53.212;6.574;2023-12-20T10:59:33;9.23;;;1.70;;
52294;SDS011;38243;53.212;6.574;2023-12-20T11:02:02;7.95;;;1.80;;
52294;SDS011;38243;53.212;6.574;2023-12-20T11:07:35;5.32;;;1.63;;
52294;SDS011;38243;53.212;6.574;2023-12-20T11:10:12;9.10;;;1.70;;
52294;SDS011;38243;53.212;6.574;2023-12-20T11:15:19;7.53;;;1.60;;
52294;SDS011;38243;53.212;6.574;2023-12-20T11:17:46;6.65;;;1.80;;
52294;SDS011;38243;53.212;6.574;2023-12-20T11:20:20;7.65;;;2.00;;
52294;SDS011;38243;53.212;6.574;2023-12-20T11:22:52;8.68;;;2.15;;
52294;SDS011;38243;53.212;6.574;2023-12-20T11:25:19;5.82;;;1.55;;
52294;SDS011;38243;53.212;6.574;2023-12-20T11:27:46;6.00;;;1.88;;
52294;SDS011;38243;53.212;6.574;2023-12-20T11:30:50;6.43;;;1.80;;
52294;SDS011;38243;53.212;6.574;2023-12-20T11:33:24;5.72;;;1.80;;
52294;SDS011;38243;53.212;6.574;2023-12-20T11:35:51;6.13;;;1.67;;
52294;SDS011;38243;53.212;6.574;2023-12-20T11:38:20;6.35;;;1.60;;
52294;SDS011;38243;53.212;6.574;2023-12-20T11:40:48;8.68;;;1.98;;
52294;SDS011;38243;53.212;6.574;2023-12-20T11:46:07;7.22;;;2.08;;
52294;SDS011;38243;53.212;6.574;2023-12-20T11:48:35;6.60;;;1.63;;
52294;SDS011;38243;53.212;6.574;2023-12-20T11:51:02;7.63;;;2.10;;
52294;SDS011;38243;53.212;6.574;2023-12-20T11:53:29;5.32;;;1.85;;
52294;SDS011;38243;53.212;6.574;2023-12-20T11:55:57;7.88;;;2.35;;
52294;SDS011;38243;53.212;6.574;2023-12-20T11:58:22;6.15;;;1.83;;
52294;SDS011;38243;53.212;6.574;2023-12-20T12:00:49;7.30;;;2.07;;
52294;SDS011;38243;53.212;6.574;2023-12-20T12:03:16;8.02;;;2.03;;
52294;SDS011;38243;53.212;6.574;2023-12-20T12:05:42;7.70;;;1.88;;
52294;SDS011;38243;53.212;6.574;2023-12-20T12:08:08;7.40;;;2.07;;
52294;SDS011;38243;53.212;6.574;2023-12-20T12:10:33;7.32;;;2.20;;
52294;SDS011;38243;53.212;6.574;2023-12-20T12:12:59;7.03;;;1.87;;
52294;SDS011;38243;53.212;6.574;2023-12-20T12:15:25;7.72;;;2.17;;
52294;SDS011;38243;53.212;6.574;2023-12-20T12:17:55;8.13;;;1.70;;
52294;SDS011;38243;53.212;6.574;2023-12-20T12:20:21;7.13;;;2.08;;
52294;SDS011;38243;53.212;6.574;2023-12-20T12:23:06;7.40;;;2.00;;
52294;SDS011;38243;53.212;6.574;2023-12-20T12:25:32;7.65;;;2.15;;
52294;SDS011;38243;53.212;6.574;2023-12-20T12:28:00;6.78;;;2.00;;
52294;SDS011;38243;53.212;6.574;2023-12-20T12:30:26;8.02;;;1.80;;
52294;SDS011;38243;53.212;6.574;2023-12-20T12:32:53;7.60;;;1.80;;
52294;SDS011;38243;53.212;6.574;2023-12-20T12:35:20;6.85;;;1.98;;
52294;SDS011;38243;53.212;6.574;2023-12-20T12:37:46;7.53;;;1.80;;
52294;SDS011;38243;53.212;6.574;2023-12-20T12:40:13;7.13;;;2.03;;
52294;SDS011;38243;53.212;6.574;2023-12-20T12:42:40;4.93;;;1.70;;
52294;SDS011;38243;53.212;6.574;2023-12-20T12:45:07;7.93;;;1.80;;
52294;SDS011;38243;53.212;6.574;2023-12-20T12:47:33;6.43;;;1.98;;
52294;SDS011;38243;53.212;6.574;2023-12-20T12:50:00;6.20;;;1.45;;
52294;SDS011;38243;53.212;6.574;2023-12-20T12:52:26;7.95;;;1.80;;
52294;SDS011;38243;53.212;6.574;2023-12-20T12:54:52;7.30;;;1.73;;
52294;SDS011;38243;53.212;6.574;2023-12-20T12:57:18;6.45;;;1.58;;
52294;SDS011;38243;53.212;6.574;2023-12-20T12:59:45;7.18;;;1.88;;
52294;SDS011;38243;53.212;6.574;2023-12-20T13:02:14;4.78;;;1.70;;
52294;SDS011;38243;53.212;6.574;2023-12-20T13:04:40;7.50;;;1.80;;
52294;SDS011;38243;53.212;6.574;2023-12-20T13:07:07;7.22;;;1.83;;
52294;SDS011;38243;53.212;6.574;2023-12-20T13:09:35;7.57;;;2.07;;
52294;SDS011;38243;53.212;6.574;2023-12-20T13:12:01;5.28;;;1.40;;
52294;SDS011;38243;53.212;6.574;2023-12-20T13:14:29;7.45;;;1.90;;
52294;SDS011;38243;53.212;6.574;2023-12-20T13:16:58;6.65;;;1.98;;
52294;SDS011;38243;53.212;6.574;2023-12-20T13:19:23;5.60;;;1.70;;
52294;SDS011;38243;53.212;6.574;2023-12-20T13:21:49;7.33;;;1.60;;
52294;SDS011;38243;53.212;6.574;2023-12-20T13:24:15;7.70;;;1.63;;
52294;SDS011;38243;53.212;6.574;2023-12-20T13:26:40;5.72;;;1.70;;
52294;SDS011;38243;53.212;6.574;2023-12-20T13:29:06;7.10;;;1.65;;
52294;SDS011;38243;53.212;6.574;2023-12-20T13:31:32;7.60;;;1.98;;
52294;SDS011;38243;53.212;6.574;2023-12-20T13:33:58;7.13;;;1.80;;
52294;SDS011;38243;53.212;6.574;2023-12-20T13:36:23;8.68;;;1.85;;
52294;SDS011;38243;53.212;6.574;2023-12-20T13:38:49;7.80;;;1.80;;
52294;SDS011;38243;53.212;6.574;2023-12-20T13:41:15;5.43;;;1.60;;
52294;SDS011;38243;53.212;6.574;2023-12-20T13:43:41;5.75;;;1.70;;
52294;SDS011;38243;53.212;6.574;2023-12-20T13:46:07;5.25;;;1.50;;
52294;SDS011;38243;53.212;6.574;2023-12-20T13:48:34;5.35;;;1.50;;
52294;SDS011;38243;53.212;6.574;2023-12-20T13:51:00;6.07;;;1.60;;
52294;SDS011;38243;53.212;6.574;2023-12-20T13:53:27;4.82;;;1.40;;
52294;SDS011;38243;53.212;6.574;2023-12-20T13:55:53;5.27;;;1.53;;
52294;SDS011;38243;53.212;6.574;2023-12-20T13:58:19;7.00;;;1.65;;
52294;SDS011;38243;53.212;6.574;2023-12-20T14:00:45;4.13;;;1.48;;
52294;SDS011;38243;53.212;6.574;2023-12-20T14:03:11;6.17;;;1.50;;
52294;SDS011;38243;53.212;6.574;2023-12-20T14:05:36;4.35;;;1.60;;
52294;SDS011;38243;53.212;6.574;2023-12-20T14:08:02;4.33;;;1.53;;
52294;SDS011;38243;53.212;6.574;2023-12-20T14:10:28;4.65;;;1.60;;
52294;SDS011;38243;53.212;6.574;2023-12-20T14:12:55;5.80;;;1.70;;
52294;SDS011;38243;53.212;6.574;2023-12-20T14:15:21;6.47;;;1.47;;
52294;SDS011;38243;53.212;6.574;2023-12-20T14:17:46;5.15;;;1.40;;
52294;SDS011;38243;53.212;6.574;2023-12-20T14:20:12;6.47;;;1.90;;
52294;SDS011;38243;53.212;6.574;2023-12-20T14:22:38;4.35;;;1.50;;
52294;SDS011;38243;53.212;6.574;2023-12-20T14:25:10;3.92;;;1.17;;
52294;SDS011;38243;53.212;6.574;2023-12-20T14:27:37;5.00;;;1.50;;
52294;SDS011;38243;53.212;6.574;2023-12-20T14:30:04;4.78;;;1.40;;
52294;SDS011;38243;53.212;6.574;2023-12-20T14:32:31;4.22;;;1.33;;
52294;SDS011;38243;53.212;6.574;2023-12-20T14:34:56;4.30;;;1.33;;
52294;SDS011;38243;53.212;6.574;2023-12-20T14:37:22;5.55;;;1.40;;
52294;SDS011;38243;53.212;6.574;2023-12-20T14:39:48;3.80;;;1.55;;
52294;SDS011;38243;53.212;6.574;2023-12-20T14:42:14;3.23;;;1.30;;
52294;SDS011;38243;53.212;6.574;2023-12-20T14:44:40;4.30;;;1.30;;
52294;SDS011;38243;53.212;6.574;2023-12-20T14:47:06;4.35;;;1.13;;
52294;SDS011;38243;53.212;6.574;2023-12-20T14:49:32;3.70;;;1.03;;